Time;durP1;ratioP1;P1;durP2;ratioP2;P2;SDS_P1;SDS_P2;PMS_P1;PMS_P2;Temp;Humidity;BMP_temperature;BMP_pressure;BME280_temperature;BME280_humidity;BME280_pressure;Samples;Min_cycle;Max_cycle;Signal;HPM_P1;HPM_P2
2021/06/07 00:01:57;;;;;;;5.80;4.20;;;13.70;99.90;;;;;;6268899;22;20039;-57
2021/06/07 00:04:26;;;;;;;8.07;5.07;;;13.80;99.90;;;;;;6268424;22;20428;-57
2021/06/07 00:06:53;;;;;;;7.95;5.45;;;13.80;99.90;;;;;;6268360;22;20141;-56
2021/06/07 00:09:20;;;;;;;8.55;4.68;;;13.70;99.90;;;;;;6279180;22;20023;-57
2021/06/07 00:11:52;;;;;;;7.50;5.65;;;13.60;99.90;;;;;;6269215;22;20023;-58
2021/06/07 00:14:22;;;;;;;8.05;4.82;;;13.60;99.90;;;;;;6270356;22;20377;-58
2021/06/07 00:16:51;;;;;;;7.80;4.80;;;13.60;99.90;;;;;;6269431;22;20030;-57
2021/06/07 00:19:21;;;;;;;8.13;5.43;;;13.60;99.90;;;;;;6269942;22;20038;-57
2021/06/07 00:21:48;;;;;;;8.95;5.45;;;13.70;99.90;;;;;;6269680;22;20349;-58
2021/06/07 00:24:20;;;;;;;5.70;4.65;;;13.70;99.90;;;;;;6270191;22;20073;-56
2021/06/07 00:26:47;;;;;;;7.50;4.90;;;13.60;99.90;;;;;;6269635;22;20047;-57
2021/06/07 00:29:15;;;;;;;6.80;5.57;;;13.60;99.90;;;;;;6268965;22;20016;-57
2021/06/07 00:31:44;;;;;;;7.70;4.93;;;13.60;99.90;;;;;;6269666;22;20374;-57
2021/06/07 00:34:11;;;;;;;5.63;4.70;;;13.60;99.90;;;;;;6270000;22;20027;-56
2021/06/07 00:36:39;;;;;;;6.72;4.97;;;13.50;99.90;;;;;;6270600;22;20015;-57
2021/06/07 00:39:10;;;;;;;7.50;5.03;;;13.50;99.90;;;;;;6280241;22;20086;-57
2021/06/07 00:41:36;;;;;;;7.38;4.55;;;13.50;99.90;;;;;;6269556;22;20019;-57
2021/06/07 00:44:10;;;;;;;7.35;4.97;;;13.50;99.90;;;;;;6269213;22;20452;-57
2021/06/07 00:46:43;;;;;;;6.40;4.95;;;13.50;99.90;;;;;;6269504;22;20023;-57
2021/06/07 00:49:09;;;;;;;6.32;4.43;;;13.50;99.90;;;;;;6269396;22;20023;-56
2021/06/07 00:51:40;;;;;;;7.00;4.90;;;13.60;99.90;;;;;;6268424;22;20027;-58
2021/06/07 00:54:10;;;;;;;6.43;5.03;;;13.50;99.90;;;;;;6269595;22;20022;-57
2021/06/07 00:56:39;;;;;;;6.32;5.00;;;13.60;99.90;;;;;;6270154;22;20038;-57
2021/06/07 00:59:07;;;;;;;6.65;5.22;;;13.50;99.90;;;;;;6269698;22;20022;-56
2021/06/07 01:01:36;;;;;;;8.98;5.13;;;13.50;99.90;;;;;;6269283;22;20832;-56
2021/06/07 01:04:03;;;;;;;6.50;5.18;;;13.40;99.90;;;;;;6270420;22;20019;-56
2021/06/07 01:06:30;;;;;;;7.45;5.40;;;13.50;99.90;;;;;;6269875;22;20019;-57
2021/06/07 01:08:59;;;;;;;6.75;5.28;;;13.50;99.90;;;;;;6243552;22;20106;-57
2021/06/07 01:11:26;;;;;;;6.78;5.07;;;13.50;99.90;;;;;;6269794;22;20020;-56
2021/06/07 01:13:55;;;;;;;6.72;6.03;;;13.50;99.90;;;;;;6269786;22;20043;-57
2021/06/07 01:16:21;;;;;;;8.18;5.60;;;13.50;99.90;;;;;;6269770;22;20090;-57
2021/06/07 01:18:48;;;;;;;6.50;5.00;;;13.50;99.90;;;;;;6270063;22;20122;-57
2021/06/07 01:21:17;;;;;;;10.35;5.40;;;13.50;99.90;;;;;;6268899;22;20026;-57
2021/06/07 01:23:45;;;;;;;8.18;5.13;;;13.50;99.90;;;;;;6279801;22;20051;-56
2021/06/07 01:26:14;;;;;;;6.93;5.03;;;13.50;99.90;;;;;;6269709;22;20043;-57
2021/06/07 01:28:41;;;;;;;7.75;4.90;;;13.50;99.90;;;;;;6269626;22;20050;-57
2021/06/07 01:31:09;;;;;;;6.63;4.82;;;13.50;99.90;;;;;;6269016;22;20435;-56
2021/06/07 01:33:55;;;;;;;7.25;4.57;;;13.50;99.90;;;;;;6246035;22;20019;-57
2021/06/07 01:36:22;;;;;;;5.40;4.80;;;13.50;99.90;;;;;;6269596;22;20019;-57
2021/06/07 01:38:48;;;;;;;7.65;4.65;;;13.50;99.90;;;;;;6269006;22;20459;-57
2021/06/07 01:41:33;;;;;;;5.80;4.20;;;13.40;99.90;;;;;;6269560;22;20475;-57
2021/06/07 01:44:21;;;;;;;5.25;4.72;;;13.40;99.90;;;;;;6269686;22;20562;-57
2021/06/07 01:46:47;;;;;;;7.38;4.82;;;13.40;99.90;;;;;;6269310;22;20020;-57
2021/06/07 01:49:17;;;;;;;6.60;4.50;;;13.40;99.90;;;;;;6269712;22;20069;-56
2021/06/07 01:51:43;;;;;;;8.13;4.45;;;13.40;99.90;;;;;;6269340;22;20047;-56
2021/06/07 01:54:30;;;;;;;8.27;5.70;;;13.30;99.90;;;;;;6269671;22;20020;-57
2021/06/07 01:56:56;;;;;;;7.63;5.22;;;13.30;99.90;;;;;;6269526;22;20471;-56
2021/06/07 01:59:23;;;;;;;5.90;4.43;;;13.30;99.90;;;;;;6270143;22;20015;-56
2021/06/07 02:01:49;;;;;;;7.22;5.03;;;13.20;99.90;;;;;;6269354;22;20051;-57
2021/06/07 02:04:18;;;;;;;6.50;4.80;;;13.10;99.90;;;;;;6270045;22;20024;-57
2021/06/07 02:06:47;;;;;;;8.27;5.53;;;13.10;99.90;;;;;;6270100;22;20066;-57
2021/06/07 02:09:15;;;;;;;6.78;5.07;;;13.00;99.90;;;;;;6269095;22;20020;-57
2021/06/07 02:11:42;;;;;;;7.03;4.63;;;13.00;99.90;;;;;;6269248;22;20383;-55
2021/06/07 02:14:09;;;;;;;7.50;5.13;;;12.90;99.90;;;;;;6269399;22;20020;-57
2021/06/07 02:16:40;;;;;;;6.57;5.88;;;12.80;99.90;;;;;;6269513;22;20019;-57
2021/06/07 02:19:10;;;;;;;7.50;5.57;;;12.70;99.90;;;;;;6269064;22;20055;-57
2021/06/07 02:21:38;;;;;;;7.60;5.70;;;12.70;99.90;;;;;;6268884;22;20019;-57
2021/06/07 02:24:07;;;;;;;8.60;6.28;;;12.60;99.90;;;;;;6269444;22;20111;-57
2021/06/07 02:26:41;;;;;;;7.97;6.82;;;12.50;99.90;;;;;;6268759;22;20102;-57
2021/06/07 02:29:13;;;;;;;9.57;6.68;;;12.40;99.90;;;;;;6268612;22;20069;-55
2021/06/07 02:31:40;;;;;;;8.50;6.15;;;12.30;99.90;;;;;;6268889;22;20110;-56
2021/06/07 02:34:11;;;;;;;11.52;7.45;;;12.30;99.90;;;;;;6268770;22;20015;-56
2021/06/07 02:36:42;;;;;;;8.55;6.82;;;12.20;99.90;;;;;;6269524;22;20034;-56
2021/06/07 02:39:13;;;;;;;8.02;6.70;;;12.20;99.90;;;;;;6269323;22;20024;-57
2021/06/07 02:41:43;;;;;;;10.43;7.38;;;12.20;99.90;;;;;;6216804;22;20012;-56
2021/06/07 02:44:12;;;;;;;10.48;7.38;;;12.10;99.90;;;;;;6268277;22;20527;-57
2021/06/07 02:46:40;;;;;;;10.25;7.60;;;12.10;99.90;;;;;;6268582;22;20511;-57
2021/06/07 02:49:09;;;;;;;8.55;6.85;;;12.10;99.90;;;;;;6241834;22;20015;-57
2021/06/07 02:51:36;;;;;;;8.93;7.65;;;12.00;99.90;;;;;;6268013;22;20016;-56
2021/06/07 02:54:05;;;;;;;10.73;7.50;;;12.00;99.90;;;;;;6268534;22;20016;-57
2021/06/07 02:56:35;;;;;;;10.35;8.02;;;11.90;99.90;;;;;;6268771;22;20020;-55
2021/06/07 02:59:03;;;;;;;10.32;8.18;;;11.90;99.90;;;;;;6268605;22;20082;-58
2021/06/07 03:01:29;;;;;;;9.43;7.57;;;11.90;99.90;;;;;;6268547;22;20028;-57
2021/06/07 03:03:58;;;;;;;10.05;7.60;;;11.90;99.90;;;;;;6269077;22;20020;-57
2021/06/07 03:06:24;;;;;;;9.38;8.48;;;11.80;99.90;;;;;;6269453;22;20106;-57
2021/06/07 03:08:53;;;;;;;8.73;7.68;;;11.80;99.90;;;;;;6269036;22;20024;-57
2021/06/07 03:11:22;;;;;;;9.82;8.38;;;11.70;99.90;;;;;;6268732;22;20046;-58
2021/06/07 03:13:48;;;;;;;10.43;8.23;;;11.70;99.90;;;;;;6268757;22;20341;-57
2021/06/07 03:16:15;;;;;;;11.48;8.45;;;11.70;99.90;;;;;;6269710;22;20031;-57
2021/06/07 03:18:44;;;;;;;11.73;8.13;;;11.70;99.90;;;;;;6268488;22;20020;-56
2021/06/07 03:21:12;;;;;;;10.63;8.10;;;11.70;99.90;;;;;;6278984;22;20017;-56
2021/06/07 03:23:40;;;;;;;11.05;9.40;;;11.70;99.90;;;;;;6268827;22;20123;-57
2021/06/07 03:26:08;;;;;;;10.98;8.57;;;11.70;99.90;;;;;;6268693;22;20015;-58
2021/06/07 03:28:36;;;;;;;12.63;8.15;;;11.70;99.90;;;;;;6268801;22;20020;-57
2021/06/07 03:31:03;;;;;;;10.77;9.13;;;11.60;99.90;;;;;;6241153;22;20046;-57
2021/06/07 03:33:33;;;;;;;9.95;8.38;;;11.60;99.90;;;;;;6278270;22;20024;-56
2021/06/07 03:35:59;;;;;;;10.88;9.57;;;11.60;99.90;;;;;;6268204;22;20069;-57
2021/06/07 03:38:32;;;;;;;9.93;8.35;;;11.60;99.90;;;;;;6268162;22;20088;-57
2021/06/07 03:41:03;;;;;;;9.50;8.37;;;11.60;99.90;;;;;;6269305;22;20023;-56
2021/06/07 03:43:32;;;;;;;13.10;8.60;;;11.60;99.90;;;;;;6268721;22;20335;-57
2021/06/07 03:45:59;;;;;;;10.82;8.82;;;11.60;99.90;;;;;;6269140;22;20089;-57
2021/06/07 03:48:25;;;;;;;11.60;8.80;;;11.60;99.90;;;;;;6270212;22;20020;-57
2021/06/07 03:50:54;;;;;;;9.70;8.70;;;11.70;99.90;;;;;;6270115;22;20117;-57
2021/06/07 03:53:21;;;;;;;10.25;9.25;;;11.60;99.90;;;;;;6270275;22;20011;-57
2021/06/07 03:55:49;;;;;;;12.10;9.02;;;11.60;99.90;;;;;;6281001;22;20026;-58
2021/06/07 03:58:19;;;;;;;9.98;8.93;;;11.60;99.90;;;;;;6270233;22;20058;-57
2021/06/07 04:00:50;;;;;;;11.15;9.30;;;11.60;99.90;;;;;;6270671;22;20022;-56
2021/06/07 04:03:19;;;;;;;12.60;9.13;;;11.60;99.90;;;;;;6270655;22;20077;-56
2021/06/07 04:05:45;;;;;;;9.75;8.80;;;11.70;99.90;;;;;;6270865;22;20016;-55
2021/06/07 04:08:14;;;;;;;11.98;8.75;;;11.70;99.90;;;;;;6281415;22;20020;-57
2021/06/07 04:10:46;;;;;;;10.23;9.10;;;11.60;99.90;;;;;;6269722;22;20016;-57
2021/06/07 04:13:15;;;;;;;9.75;8.48;;;11.70;99.90;;;;;;6269732;22;20090;-57
2021/06/07 04:15:43;;;;;;;10.88;8.90;;;11.80;99.90;;;;;;6270868;22;20020;-57
2021/06/07 04:18:10;;;;;;;11.43;9.45;;;11.80;99.90;;;;;;6280757;22;20016;-57
2021/06/07 04:20:39;;;;;;;11.00;9.80;;;11.80;99.90;;;;;;6270440;22;20046;-56
2021/06/07 04:23:08;;;;;;;10.40;9.23;;;11.90;99.90;;;;;;6270742;22;20043;-57
2021/06/07 04:25:34;;;;;;;11.02;9.90;;;11.90;99.90;;;;;;6270525;22;20023;-57
2021/06/07 04:28:03;;;;;;;10.00;9.00;;;11.90;99.90;;;;;;6270684;22;20055;-57
2021/06/07 04:30:32;;;;;;;11.45;9.93;;;11.90;99.90;;;;;;6270881;22;20018;-57
2021/06/07 04:33:02;;;;;;;12.20;9.35;;;11.90;99.90;;;;;;6270396;22;20615;-58
2021/06/07 04:35:31;;;;;;;10.25;9.27;;;12.00;99.90;;;;;;6280778;22;20039;-58
2021/06/07 04:37:59;;;;;;;11.23;8.68;;;12.00;99.90;;;;;;6270251;22;20019;-58
2021/06/07 04:40:35;;;;;;;10.55;9.45;;;12.10;99.90;;;;;;6270237;22;20398;-58
2021/06/07 04:43:05;;;;;;;10.65;9.02;;;12.20;99.90;;;;;;6270109;22;20016;-59
2021/06/07 04:45:35;;;;;;;12.40;9.48;;;12.30;99.90;;;;;;6270197;22;20016;-58
2021/06/07 04:48:05;;;;;;;9.15;8.32;;;12.40;99.90;;;;;;6270909;22;20046;-58
2021/06/07 04:50:33;;;;;;;9.57;8.48;;;12.50;99.90;;;;;;6271316;22;20048;-57
2021/06/07 04:53:01;;;;;;;8.65;7.85;;;12.60;99.90;;;;;;6271224;22;20047;-58
2021/06/07 04:55:38;;;;;;;10.15;8.38;;;12.60;99.90;;;;;;6271440;22;20020;-58
2021/06/07 04:58:08;;;;;;;10.50;8.93;;;12.70;99.90;;;;;;6270279;22;20081;-57
2021/06/07 05:00:38;;;;;;;9.93;8.40;;;12.80;99.90;;;;;;6269295;22;20024;-57
2021/06/07 05:03:08;;;;;;;7.93;7.10;;;12.90;99.90;;;;;;6269720;22;20019;-57
2021/06/07 05:05:34;;;;;;;8.93;7.90;;;13.00;99.90;;;;;;6269526;22;20080;-56
2021/06/07 05:08:02;;;;;;;10.05;7.43;;;13.30;99.90;;;;;;6269353;22;20321;-57
2021/06/07 05:10:29;;;;;;;8.40;6.90;;;13.70;99.90;;;;;;6269339;22;20570;-57
2021/06/07 05:12:56;;;;;;;7.75;7.05;;;14.20;99.90;;;;;;6280176;22;20043;-58
2021/06/07 05:15:23;;;;;;;10.05;6.47;;;14.50;99.90;;;;;;6280276;22;20102;-58
2021/06/07 05:17:49;;;;;;;7.40;6.40;;;14.90;99.90;;;;;;6280125;22;20051;-57
2021/06/07 05:20:21;;;;;;;8.60;6.32;;;15.00;99.90;;;;;;6269964;22;20047;-57
2021/06/07 05:22:48;;;;;;;;;;;15.20;99.90;;;;;;6270896;22;20059;-57
2021/06/07 05:25:16;;;;;;;8.73;5.60;;;15.20;99.50;;;;;;6273213;22;19919;-58
2021/06/07 05:27:46;;;;;;;6.30;5.32;;;15.30;99.90;;;;;;6270376;22;20024;-57
2021/06/07 05:30:13;;;;;;;6.45;5.20;;;15.50;99.90;;;;;;6270006;22;20416;-57
2021/06/07 05:32:40;;;;;;;6.10;4.70;;;15.80;99.90;;;;;;6280416;22;20065;-57
2021/06/07 05:35:09;;;;;;;7.30;4.15;;;16.10;98.90;;;;;;6269601;22;20479;-57
2021/06/07 05:37:38;;;;;;;;;;;16.00;99.90;;;;;;6270966;22;20016;-57
2021/06/07 05:40:09;;;;;;;5.90;4.13;;;16.10;97.00;;;;;;6270749;22;19941;-56
2021/06/07 05:42:38;;;;;;;4.65;4.15;;;16.40;97.90;;;;;;6270085;22;20015;-57
2021/06/07 05:45:06;;;;;;;6.13;3.85;;;16.60;98.50;;;;;;6269879;22;20077;-57
2021/06/07 05:47:32;;;;;;;5.78;3.53;;;16.70;97.90;;;;;;6270121;22;20019;-57
2021/06/07 05:49:59;;;;;;;7.93;4.00;;;16.90;97.40;;;;;;6269019;22;20027;-48
2021/06/07 05:52:26;;;;;;;6.35;3.33;;;17.20;97.10;;;;;;6267104;22;20463;-59
2021/06/07 05:54:52;;;;;;;7.07;3.97;;;17.50;96.10;;;;;;6269567;22;20027;-61
2021/06/07 05:57:18;;;;;;;8.95;5.32;;;17.60;94.90;;;;;;6270016;22;20020;-56
2021/06/07 05:59:47;;;;;;;6.05;3.50;;;17.70;94.30;;;;;;6270187;22;20046;-55
2021/06/07 06:02:17;;;;;;;21.30;15.90;;;17.90;94.10;;;;;;6280712;22;20020;-58
2021/06/07 06:04:43;;;;;;;8.95;7.28;;;18.10;93.40;;;;;;6270262;22;20761;-61
2021/06/07 06:07:09;;;;;;;17.38;14.70;;;18.30;93.10;;;;;;6280502;22;20024;-59
2021/06/07 06:09:36;;;;;;;6.65;4.32;;;18.50;92.20;;;;;;6270198;22;20039;-62
2021/06/07 06:12:03;;;;;;;6.97;4.75;;;18.70;91.50;;;;;;6280093;22;20015;-63
2021/06/07 06:14:29;;;;;;;4.50;3.38;;;18.90;91.00;;;;;;6242481;22;20041;-60
2021/06/07 06:16:58;;;;;;;10.35;6.65;;;18.90;86.80;;;;;;6269687;22;20022;-61
2021/06/07 06:19:24;;;;;;;7.70;3.42;;;19.00;90.10;;;;;;6269130;22;20019;-57
2021/06/07 06:21:51;;;;;;;4.70;3.05;;;19.00;88.60;;;;;;6269381;22;20325;-61
2021/06/07 06:24:17;;;;;;;7.20;4.47;;;19.40;87.00;;;;;;6269272;22;20387;-55
2021/06/07 06:26:55;;;;;;;15.40;12.88;;;19.30;86.30;;;;;;6269367;22;20086;-60
2021/06/07 06:29:26;;;;;;;4.47;2.75;;;19.00;80.90;;;;;;6268536;22;20508;-66
2021/06/07 06:31:52;;;;;;;5.63;2.75;;;19.00;84.70;;;;;;6269410;22;20078;-64
2021/06/07 06:34:24;;;;;;;44.22;39.70;;;19.40;81.50;;;;;;6242234;22;20106;-67
2021/06/07 06:36:50;;;;;;;4.85;2.88;;;19.50;80.60;;;;;;6268726;22;20008;-65
2021/06/07 06:39:20;;;;;;;5.63;2.63;;;19.60;77.00;;;;;;6268750;22;20019;-66
2021/06/07 06:41:49;;;;;;;3.85;2.50;;;19.90;82.00;;;;;;6269736;22;20124;-67
2021/06/07 06:44:18;;;;;;;7.97;4.13;;;19.60;77.00;;;;;;6242406;22;20016;-68
2021/06/07 06:46:49;;;;;;;6.72;4.28;;;19.60;81.50;;;;;;6268569;22;20019;-67
2021/06/07 06:49:16;;;;;;;5.32;2.33;;;20.00;80.90;;;;;;6215842;22;20024;-66
2021/06/07 06:51:43;;;;;;;45.35;40.80;;;20.20;81.20;;;;;;6268794;22;20027;-61
2021/06/07 06:54:10;;;;;;;8.35;6.00;;;20.20;78.60;;;;;;6269748;22;20022;-63
2021/06/07 06:56:37;;;;;;;4.93;2.65;;;20.50;77.90;;;;;;6279548;22;20034;-66
2021/06/07 06:59:04;;;;;;;5.60;3.15;;;20.50;75.50;;;;;;6269328;22;20023;-65
2021/06/07 07:01:30;;;;;;;21.70;17.80;;;20.70;73.50;;;;;;6268901;22;20343;-63
2021/06/07 07:03:56;;;;;;;6.75;4.32;;;20.80;74.70;;;;;;6269077;22;20047;-65
2021/06/07 07:06:26;;;;;;;20.15;18.20;;;21.00;71.50;;;;;;6278473;22;20044;-64
2021/06/07 07:08:53;;;;;;;38.50;34.63;;;21.20;72.50;;;;;;6241858;22;20573;-65
2021/06/07 07:11:20;;;;;;;10.23;8.40;;;21.10;70.80;;;;;;6269142;22;20030;-65
2021/06/07 07:13:46;;;;;;;5.15;2.63;;;21.50;70.30;;;;;;6242204;22;20169;-64
2021/06/07 07:16:12;;;;;;;2.60;1.30;;;21.50;69.10;;;;;;6268734;22;20758;-65
2021/06/07 07:18:41;;;;;;;3.20;1.83;;;21.40;67.00;;;;;;6279510;22;20337;-65
2021/06/07 07:21:07;;;;;;;3.80;1.10;;;21.40;69.30;;;;;;6279704;22;20518;-67
2021/06/07 07:23:36;;;;;;;5.72;3.13;;;21.30;66.10;;;;;;6280664;22;20407;-66
2021/06/07 07:26:03;;;;;;;4.07;1.40;;;21.30;66.10;;;;;;6270726;22;20077;-66
2021/06/07 07:28:30;;;;;;;4.22;1.10;;;21.50;65.00;;;;;;6253750;22;20027;-65
2021/06/07 07:30:56;;;;;;;2.13;1.08;;;21.70;64.60;;;;;;6271189;22;20016;-64
2021/06/07 07:33:23;;;;;;;6.25;4.20;;;21.70;64.40;;;;;;6270228;22;20016;-65
2021/06/07 07:35:50;;;;;;;4.38;1.88;;;22.00;64.30;;;;;;6279563;22;20015;-66
2021/06/07 07:38:16;;;;;;;4.05;1.10;;;22.10;63.70;;;;;;6268520;22;20026;-69
2021/06/07 07:40:44;;;;;;;3.95;1.25;;;22.00;63.90;;;;;;6278158;22;20471;-59
2021/06/07 07:43:11;;;;;;;2.67;1.65;;;21.60;61.80;;;;;;6270726;22;20020;-48
2021/06/07 07:45:41;;;;;;;1.98;1.00;;;22.00;62.20;;;;;;6271147;22;20015;-50
2021/06/07 07:48:08;;;;;;;2.85;1.50;;;22.00;60.90;;;;;;6270663;22;20345;-48
2021/06/07 07:50:37;;;;;;;2.85;1.02;;;22.00;55.90;;;;;;6279907;22;20031;-50
2021/06/07 07:53:04;;;;;;;3.33;1.30;;;22.00;58.20;;;;;;6271234;22;20063;-50
2021/06/07 07:55:34;;;;;;;5.05;1.77;;;22.00;59.60;;;;;;6271049;22;20440;-53
2021/06/07 07:58:04;;;;;;;4.65;2.17;;;22.40;59.60;;;;;;6271023;22;20127;-54
2021/06/07 08:00:33;;;;;;;2.23;1.43;;;22.60;59.00;;;;;;6270811;22;20427;-54
2021/06/07 08:03:00;;;;;;;4.30;2.53;;;22.80;59.00;;;;;;6270872;22;20310;-54
2021/06/07 08:05:27;;;;;;;5.63;2.75;;;23.10;59.60;;;;;;6270320;22;20054;-56
2021/06/07 08:07:54;;;;;;;3.33;1.88;;;23.20;57.40;;;;;;6280136;22;20020;-53
2021/06/07 08:10:20;;;;;;;3.97;1.30;;;23.40;58.00;;;;;;6280922;22;20102;-51
2021/06/07 08:12:46;;;;;;;4.32;1.30;;;23.30;56.50;;;;;;6281134;22;20024;-55
2021/06/07 08:15:13;;;;;;;5.65;1.20;;;23.30;57.00;;;;;;6280577;22;20042;-56
2021/06/07 08:17:42;;;;;;;4.28;1.42;;;23.00;56.30;;;;;;6270265;22;20142;-53
2021/06/07 08:20:13;;;;;;;4.25;2.13;;;23.30;56.80;;;;;;6270618;22;20020;-55
2021/06/07 08:22:40;;;;;;;5.00;1.38;;;23.30;55.60;;;;;;6270407;22;20020;-55
2021/06/07 08:25:11;;;;;;;2.20;1.05;;;23.40;55.40;;;;;;6270704;22;20015;-54
2021/06/07 08:27:38;;;;;;;3.55;1.02;;;23.50;55.70;;;;;;6270030;22;20051;-54
2021/06/07 08:30:07;;;;;;;4.45;2.13;;;23.80;56.10;;;;;;6270033;22;20070;-54
2021/06/07 08:32:37;;;;;;;3.63;2.20;;;23.70;54.00;;;;;;6242153;22;20020;-52
2021/06/07 08:35:07;;;;;;;2.92;1.88;;;24.10;53.70;;;;;;6269909;22;20015;-52
2021/06/07 08:37:37;;;;;;;5.00;2.30;;;24.20;53.40;;;;;;6269318;22;20016;-54
2021/06/07 08:40:06;;;;;;;6.07;1.95;;;24.20;51.60;;;;;;6269730;22;20065;-55
2021/06/07 08:42:37;;;;;;;4.50;2.20;;;24.40;51.90;;;;;;6270371;22;20127;-53
2021/06/07 08:45:06;;;;;;;5.35;1.90;;;24.50;51.90;;;;;;6280415;22;20016;-52
2021/06/07 08:47:32;;;;;;;3.47;2.17;;;24.70;51.60;;;;;;6280211;22;20027;-53
2021/06/07 08:50:00;;;;;;;6.05;2.10;;;24.70;52.70;;;;;;6270307;22;20023;-54
2021/06/07 08:52:29;;;;;;;3.38;1.80;;;24.80;52.50;;;;;;6242686;22;20042;-54
2021/06/07 08:54:57;;;;;;;2.92;1.52;;;24.80;50.40;;;;;;6280901;22;20020;-53
2021/06/07 08:57:25;;;;;;;3.53;1.45;;;24.80;51.70;;;;;;6270737;22;20030;-51
2021/06/07 08:59:52;;;;;;;3.30;1.40;;;25.20;51.90;;;;;;6271065;22;20020;-53
2021/06/07 09:02:40;;;;;;;4.82;1.60;;;25.10;51.90;;;;;;6243936;22;20486;-54
2021/06/07 09:05:07;;;;;;;4.93;1.92;;;25.10;50.70;;;;;;6269926;22;20087;-54
2021/06/07 09:07:59;;;;;;;5.05;2.30;;;25.20;52.00;;;;;;6269399;22;20027;-54
2021/06/07 09:10:32;;;;;;;4.55;2.28;;;25.00;50.50;;;;;;6269988;22;20527;-55
2021/06/07 09:13:03;;;;;;;;;;;25.40;51.70;;;;;;6270632;22;20027;-55
2021/06/07 09:15:31;;;;;;;4.60;2.28;;;25.10;49.50;;;;;;6280435;22;20518;-54
2021/06/07 09:17:59;;;;;;;4.68;2.38;;;25.40;52.20;;;;;;6275222;22;20016;-56
2021/06/07 09:20:27;;;;;;;5.88;2.78;;;25.40;51.50;;;;;;6270416;22;20022;-55
2021/06/07 09:23:04;;;;;;;4.32;2.80;;;25.60;51.60;;;;;;6280098;22;20077;-55
2021/06/07 09:25:34;;;;;;;4.50;2.92;;;26.00;50.40;;;;;;6269416;22;20019;-53
2021/06/07 09:28:06;;;;;;;4.53;2.70;;;25.60;49.60;;;;;;6242683;22;20417;-54
2021/06/07 09:30:43;;;;;;;4.75;2.75;;;25.80;50.20;;;;;;6270148;22;20023;-53
2021/06/07 09:33:26;;;;;;;4.25;2.70;;;26.10;50.50;;;;;;6280578;22;20024;-55
2021/06/07 09:36:27;;;;;;;4.53;2.22;;;26.30;46.70;;;;;;6270201;22;20318;-55
2021/06/07 09:39:11;;;;;;;5.35;2.70;;;26.50;48.20;;;;;;6269491;22;20126;-54
2021/06/07 09:41:58;;;;;;;4.45;2.72;;;26.60;47.60;;;;;;6270203;22;20023;-56
2021/06/07 09:44:36;;;;;;;5.18;2.90;;;26.80;46.50;;;;;;6269649;22;20023;-53
2021/06/07 09:47:24;;;;;;;4.43;2.53;;;26.60;49.30;;;;;;6270046;22;20015;-53
2021/06/07 09:49:55;;;;;;;6.10;2.70;;;26.70;47.30;;;;;;6269665;22;20069;-54
2021/06/07 09:52:23;;;;;;;5.22;2.28;;;27.00;48.40;;;;;;6269240;22;20519;-54
2021/06/07 09:55:26;;;;;;;4.82;2.55;;;27.40;48.00;;;;;;6269690;22;20024;-56
2021/06/07 09:57:57;;;;;;;4.65;2.78;;;27.20;46.40;;;;;;6267382;22;20051;-55
2021/06/07 10:00:38;;;;;;;8.38;6.60;;;27.00;47.70;;;;;;6268376;22;20106;-56
2021/06/07 10:03:23;;;;;;;29.52;26.65;;;27.10;47.10;;;;;;6279643;22;20094;-54
2021/06/07 10:05:55;;;;;;;5.07;2.97;;;27.40;45.00;;;;;;6268995;22;20016;-55
2021/06/07 10:08:24;;;;;;;6.28;3.42;;;27.20;46.10;;;;;;6268893;22;20329;-54
2021/06/07 10:10:56;;;;;;;6.78;4.00;;;27.40;44.20;;;;;;6269350;22;20101;-54
2021/06/07 10:13:22;;;;;;;8.10;6.80;;;27.00;44.40;;;;;;6269745;22;20047;-57
2021/06/07 10:15:49;;;;;;;11.18;9.90;;;27.00;44.90;;;;;;6269088;22;20518;-54
2021/06/07 10:18:19;;;;;;;5.68;3.72;;;27.20;44.60;;;;;;6279569;22;20016;-54
2021/06/07 10:20:50;;;;;;;6.28;5.63;;;27.20;45.20;;;;;;6269403;22;20027;-50
2021/06/07 10:23:25;;;;;;;4.38;3.17;;;27.50;45.10;;;;;;6269166;22;20026;-53
2021/06/07 10:25:57;;;;;;;3.15;1.67;;;27.60;40.00;;;;;;6279690;22;20111;-53
2021/06/07 10:28:41;;;;;;;4.20;3.13;;;27.70;43.90;;;;;;6269174;22;20019;-54
2021/06/07 10:31:11;;;;;;;6.45;4.85;;;27.90;43.60;;;;;;6268735;22;20107;-54
2021/06/07 10:33:39;;;;;;;4.60;2.55;;;27.60;43.60;;;;;;6241318;22;20731;-55
2021/06/07 10:36:28;;;;;;;6.65;5.28;;;27.40;44.70;;;;;;6279497;22;20047;-56
2021/06/07 10:39:19;;;;;;;7.20;4.93;;;27.80;44.70;;;;;;6268536;22;20523;-55
2021/06/07 10:41:48;;;;;;;17.40;15.40;;;27.90;43.20;;;;;;6268542;22;20020;-54
2021/06/07 10:44:44;;;;;;;3.70;2.03;;;27.60;42.80;;;;;;6269213;22;20019;-56
2021/06/07 10:47:13;;;;;;;4.00;2.25;;;27.40;43.50;;;;;;6268360;22;20020;-56
2021/06/07 10:49:49;;;;;;;3.70;2.30;;;27.40;44.10;;;;;;6268336;22;20465;-57
2021/06/07 10:52:27;;;;;;;16.50;14.93;;;27.30;43.40;;;;;;6267839;22;20023;-55
2021/06/07 10:55:12;;;;;;;12.73;11.18;;;27.80;43.80;;;;;;6268634;22;20016;-55
2021/06/07 10:57:49;;;;;;;33.03;30.08;;;27.90;43.00;;;;;;6242034;22;20413;-55
2021/06/07 11:00:32;;;;;;;27.67;25.10;;;27.70;42.40;;;;;;6278692;22;20024;-55
2021/06/07 11:03:02;;;;;;;7.43;5.97;;;27.90;39.30;;;;;;6269653;22;20043;-55
2021/06/07 11:05:33;;;;;;;12.70;10.57;;;28.10;41.40;;;;;;6242468;22;20035;-55
2021/06/07 11:08:11;;;;;;;8.15;5.75;;;27.80;41.90;;;;;;6269268;22;20034;-56
2021/06/07 11:10:47;;;;;;;4.15;1.42;;;28.00;41.80;;;;;;6280506;22;20043;-56
2021/06/07 11:13:18;;;;;;;13.52;11.32;;;27.60;38.50;;;;;;6269429;22;20407;-57
2021/06/07 11:15:55;;;;;;;2.80;1.33;;;27.20;42.40;;;;;;6268553;22;20088;-57
2021/06/07 11:18:28;;;;;;;3.72;1.88;;;27.40;41.70;;;;;;6268726;22;20016;-59
2021/06/07 11:20:58;;;;;;;4.88;3.05;;;27.90;42.30;;;;;;6268593;22;20027;-57
2021/06/07 11:23:37;;;;;;;3.33;2.00;;;28.10;42.80;;;;;;6278753;22;20016;-57
2021/06/07 11:26:10;;;;;;;2.80;1.40;;;28.40;40.90;;;;;;6278803;22;20451;-57
2021/06/07 11:28:41;;;;;;;8.02;4.43;;;28.30;41.10;;;;;;6267297;22;20020;-57
2021/06/07 11:31:25;;;;;;;11.55;10.27;;;28.50;39.90;;;;;;6268408;22;20015;-57
2021/06/07 11:34:04;;;;;;;12.95;11.65;;;28.70;38.90;;;;;;6268374;22;20514;-58
2021/06/07 11:36:39;;;;;;;5.40;2.92;;;28.70;39.70;;;;;;6269251;22;20015;-56
2021/06/07 11:39:09;;;;;;;4.43;1.92;;;28.50;38.90;;;;;;6268988;22;20019;-52
2021/06/07 11:41:48;;;;;;;2.63;1.52;;;28.70;39.50;;;;;;6279105;22;20098;-55
2021/06/07 11:44:17;;;;;;;1.77;0.85;;;28.90;39.00;;;;;;6268007;22;20019;-57
2021/06/07 11:46:43;;;;;;;5.10;2.67;;;28.80;39.00;;;;;;6277504;22;20023;-54
2021/06/07 11:49:14;;;;;;;2.28;1.30;;;28.60;38.00;;;;;;6267842;22;20647;-56
2021/06/07 11:51:45;;;;;;;17.02;15.40;;;28.90;39.40;;;;;;6278622;22;20046;-57
2021/06/07 11:54:25;;;;;;;7.63;5.88;;;28.90;39.80;;;;;;6268488;22;20099;-55
2021/06/07 11:56:59;;;;;;;6.03;3.75;;;28.60;38.30;;;;;;6268811;22;20016;-56
2021/06/07 11:59:27;;;;;;;5.60;3.10;;;28.70;39.10;;;;;;6267188;22;20478;-56
2021/06/07 12:01:56;;;;;;;11.02;9.77;;;28.60;38.40;;;;;;6267932;22;20094;-55
2021/06/07 12:04:33;;;;;;;11.10;10.07;;;28.60;39.30;;;;;;6267366;22;20107;-55
2021/06/07 12:07:11;;;;;;;5.25;4.43;;;28.60;37.50;;;;;;6268087;22;20023;-56
2021/06/07 12:09:40;;;;;;;4.88;3.15;;;28.90;41.30;;;;;;6240621;22;20102;-56
2021/06/07 12:12:09;;;;;;;3.05;1.38;;;28.40;38.50;;;;;;6269253;22;20020;-55
2021/06/07 12:14:41;;;;;;;16.38;14.85;;;28.30;38.00;;;;;;6268478;22;20345;-55
2021/06/07 12:17:17;;;;;;;6.88;6.18;;;28.30;38.00;;;;;;6268084;22;20162;-55
2021/06/07 12:19:47;;;;;;;4.95;3.67;;;28.50;39.00;;;;;;6267933;22;20023;-56
2021/06/07 12:22:26;;;;;;;4.18;0.93;;;28.30;39.00;;;;;;6279347;22;20348;-56
2021/06/07 12:24:59;;;;;;;3.20;2.50;;;28.60;39.80;;;;;;6268842;22;20022;-56
2021/06/07 12:30:19;;;;;;;5.90;4.47;;;28.70;38.50;;;;;;6267757;22;20047;-55
2021/06/07 12:32:49;;;;;;;2.22;1.30;;;28.50;38.50;;;;;;6268475;22;20022;-56
2021/06/07 12:35:22;;;;;;;2.38;1.00;;;28.80;38.10;;;;;;6269167;22;20392;-56
2021/06/07 12:37:53;;;;;;;4.22;2.75;;;28.70;37.90;;;;;;6267475;22;20016;-54
2021/06/07 12:40:26;;;;;;;3.50;1.88;;;28.80;38.40;;;;;;6278371;22;20027;-56
2021/06/07 12:42:56;;;;;;;3.65;2.67;;;29.20;38.30;;;;;;6268723;22;20099;-59
2021/06/07 12:45:32;;;;;;;3.45;0.85;;;29.20;38.60;;;;;;6239515;22;20020;-56
2021/06/07 12:48:23;;;;;;;1.33;0.65;;;28.70;38.50;;;;;;6241067;22;20030;-55
2021/06/07 12:50:57;;;;;;;9.95;8.88;;;28.90;38.10;;;;;;6266664;22;20421;-57
2021/06/07 12:53:26;;;;;;;2.15;1.27;;;29.00;38.80;;;;;;6268216;22;20543;-56
2021/06/07 12:56:02;;;;;;;2.47;1.00;;;28.90;37.90;;;;;;6268752;22;20907;-56
2021/06/07 12:58:29;;;;;;;10.00;9.05;;;28.90;37.50;;;;;;6240455;22;20043;-56
2021/06/07 13:01:06;;;;;;;1.27;0.70;;;29.20;37.70;;;;;;6268036;22;20133;-57
2021/06/07 13:03:38;;;;;;;2.95;1.80;;;29.20;34.90;;;;;;6268497;22;20024;-56
2021/06/07 13:06:14;;;;;;;4.55;3.40;;;29.50;34.90;;;;;;6268019;22;20039;-56